Time,TemperatureF,DewpointF,PressureIn,WindDirection,WindDirectionDegrees,WindSpeedMPH,WindSpeedGustMPH,Humidity,HourlyPrecipIn,Conditions,Clouds,dailyrainin,SoftwareType,DateUTC
2013-07-27 00:02:00,58.1,55.4,29.88,NNW,348,2.0,2.0,91,0.00,,,0.01,meteohub,2013-07-27 05:02:00,
2013-07-27 00:07:00,58.3,55.9,29.88,NNW,348,4.0,5.0,92,0.00,,,0.00,meteohub,2013-07-27 05:07:00,
2013-07-27 00:12:00,58.3,55.9,29.88,NNW,348,2.0,5.0,92,0.00,,,0.00,meteohub,2013-07-27 05:12:00,
2013-07-27 00:17:00,58.3,55.9,29.88,NNW,348,4.0,4.0,92,0.00,,,0.00,meteohub,2013-07-27 05:17:00,
2013-07-27 00:22:00,58.3,55.9,29.88,NNW,348,3.0,4.0,92,0.00,,,0.00,meteohub,2013-07-27 05:22:00,
2013-07-27 00:27:00,58.6,56.7,29.88,North,355,1.0,8.0,93,0.00,,,0.00,meteohub,2013-07-27 05:27:00,
2013-07-27 00:32:00,57.9,55.2,29.88,North,5,1.0,8.0,91,0.00,,,0.00,meteohub,2013-07-27 05:32:00,
2013-07-27 00:37:00,57.9,55.2,29.89,NNW,336,4.0,12.0,91,0.00,,,0.00,meteohub,2013-07-27 05:37:00,
2013-07-27 00:43:00,57.7,54.9,29.89,NNW,328,2.0,12.0,90,0.00,,,0.00,meteohub,2013-07-27 05:43:00,
2013-07-27 00:48:00,57.6,54.3,29.89,NNW,327,4.0,12.0,89,0.00,,,0.00,meteohub,2013-07-27 05:48:00,
2013-07-27 00:53:00,57.4,54.1,29.89,NNW,343,1.0,10.0,89,0.00,,,0.00,meteohub,2013-07-27 05:53:00,
2013-07-27 00:58:00,57.4,53.8,29.89,NNW,346,8.0,11.0,88,0.00,,,0.00,meteohub,2013-07-27 05:58:00,
2013-07-27 01:03:00,57.0,53.2,29.89,NNW,343,4.0,12.0,87,0.00,,,0.00,meteohub,2013-07-27 06:03:00,
2013-07-27 01:09:00,56.8,53.1,29.89,NNW,341,5.0,12.0,87,0.00,,,0.00,meteohub,2013-07-27 06:09:00,
2013-07-27 01:14:00,56.8,53.1,29.89,NNW,340,8.0,12.0,87,0.00,,,0.00,meteohub,2013-07-27 06:14:00,
2013-07-27 01:19:00,56.7,52.9,29.89,NNW,331,6.0,12.0,87,0.00,,,0.00,meteohub,2013-07-27 06:19:00,
2013-07-27 01:24:00,56.7,52.9,29.89,NNW,346,6.0,11.0,87,0.00,,,0.00,meteohub,2013-07-27 06:24:00,
2013-07-27 01:29:00,56.5,52.7,29.89,North,355,7.0,11.0,87,0.00,,,0.00,meteohub,2013-07-27 06:29:00,
2013-07-27 01:35:00,56.1,52.3,29.90,NNW,340,8.0,12.0,87,0.00,,,0.00,meteohub,2013-07-27 06:35:00,
2013-07-27 01:40:00,56.1,52.3,29.90,North,355,7.0,12.0,87,0.00,,,0.00,meteohub,2013-07-27 06:40:00,
2013-07-27 01:45:00,55.9,52.2,29.90,North,355,4.0,12.0,87,0.00,,,0.00,meteohub,2013-07-27 06:45:00,
2013-07-27 01:50:00,55.9,52.2,29.90,NNW,344,6.0,11.0,87,0.00,,,0.00,meteohub,2013-07-27 06:50:00,
2013-07-27 01:55:00,55.9,52.2,29.90,North,350,4.0,11.0,87,0.00,,,0.00,meteohub,2013-07-27 06:55:00,
2013-07-27 02:00:00,55.9,52.5,29.90,North,355,3.0,9.0,88,0.00,,,0.00,meteohub,2013-07-27 07:00:00,
2013-07-27 02:06:00,55.8,52.3,29.90,NNW,344,4.0,8.0,88,0.00,,,0.00,meteohub,2013-07-27 07:06:00,
2013-07-27 02:11:00,55.8,52.3,29.90,NNW,348,2.0,8.0,88,0.00,,,0.00,meteohub,2013-07-27 07:11:00,
2013-07-27 02:16:00,55.8,52.3,29.90,North,355,4.0,8.0,88,0.00,,,0.00,meteohub,2013-07-27 07:16:00,
2013-07-27 02:21:00,55.6,52.2,29.90,NNW,341,4.0,9.0,88,0.00,,,0.00,meteohub,2013-07-27 07:21:00,
2013-07-27 02:27:00,55.6,51.8,29.90,NW,326,3.0,9.0,87,0.00,,,0.00,meteohub,2013-07-27 07:27:00,
2013-07-27 02:32:00,55.6,52.2,29.90,NW,325,3.0,9.0,88,0.00,,,0.00,meteohub,2013-07-27 07:32:00,
2013-07-27 02:37:00,55.4,51.6,29.90,NW,321,4.0,8.0,87,0.00,,,0.00,meteohub,2013-07-27 07:37:00,
2013-07-27 02:42:00,55.2,51.1,29.90,NNW,344,5.0,8.0,86,0.00,,,0.00,meteohub,2013-07-27 07:42:00,
2013-07-27 02:48:00,55.2,51.1,29.90,NNW,346,6.0,9.0,86,0.00,,,0.00,meteohub,2013-07-27 07:48:00,
2013-07-27 02:53:00,55.2,51.1,29.90,NW,317,7.0,9.0,86,0.00,,,0.00,meteohub,2013-07-27 07:53:00,
2013-07-27 02:58:00,55.0,51.3,29.90,NNW,343,7.0,9.0,87,0.00,,,0.00,meteohub,2013-07-27 07:58:00,
2013-07-27 03:03:00,54.9,50.4,29.90,NNW,348,6.0,9.0,85,0.00,,,0.00,meteohub,2013-07-27 08:03:00,
2013-07-27 03:09:00,54.9,50.7,29.90,NNW,333,10.0,14.0,86,0.00,,,0.00,meteohub,2013-07-27 08:09:00,
2013-07-27 03:14:00,54.7,50.2,29.89,NNW,343,7.0,14.0,85,0.00,,,0.00,meteohub,2013-07-27 08:14:00,
2013-07-27 03:19:00,54.7,50.5,29.90,NNW,338,7.0,14.0,86,0.00,,,0.00,meteohub,2013-07-27 08:19:00,
2013-07-27 03:24:00,54.7,50.5,29.90,NNW,329,3.0,12.0,86,0.00,,,0.00,meteohub,2013-07-27 08:24:00,
2013-07-27 03:29:00,54.3,49.8,29.90,NNW,341,2.0,11.0,85,0.00,,,0.00,meteohub,2013-07-27 08:29:00,
2013-07-27 03:34:00,54.3,49.6,29.90,NW,322,7.0,11.0,84,0.00,,,0.00,meteohub,2013-07-27 08:34:00,
2013-07-27 03:40:00,54.1,49.5,29.90,WSW,256,2.0,11.0,84,0.00,,,0.00,meteohub,2013-07-27 08:40:00,
2013-07-27 03:45:00,54.1,49.5,29.90,NNW,329,1.0,9.0,84,0.00,,,0.00,meteohub,2013-07-27 08:45:00,
2013-07-27 03:50:00,54.0,49.3,29.90,NW,307,2.0,9.0,84,0.00,,,0.00,meteohub,2013-07-27 08:50:00,
2013-07-27 03:55:00,54.0,49.3,29.90,NNW,334,0.0,8.0,84,0.00,,,0.00,meteohub,2013-07-27 08:55:00,
2013-07-27 04:00:00,53.8,49.5,29.90,NNW,327,3.0,8.0,85,0.00,,,0.00,meteohub,2013-07-27 09:00:00,
2013-07-27 04:06:00,53.6,49.3,29.90,NNW,341,5.0,9.0,85,0.00,,,0.00,meteohub,2013-07-27 09:06:00,
2013-07-27 04:11:00,53.4,49.1,29.90,North,11,3.0,9.0,85,0.00,,,0.00,meteohub,2013-07-27 09:11:00,
2013-07-27 04:16:00,53.4,49.3,29.90,NNW,336,0.0,9.0,86,0.00,,,0.00,meteohub,2013-07-27 09:16:00,
2013-07-27 04:21:00,53.4,49.3,29.90,NW,323,5.0,8.0,86,0.00,,,0.00,meteohub,2013-07-27 09:21:00,
2013-07-27 04:27:00,53.2,48.9,29.91,NNW,340,4.0,8.0,85,0.00,,,0.00,meteohub,2013-07-27 09:27:00,
2013-07-27 04:32:00,53.2,48.9,29.91,NW,317,3.0,8.0,85,0.00,,,0.00,meteohub,2013-07-27 09:32:00,
2013-07-27 04:37:00,53.2,48.6,29.91,NW,322,2.0,8.0,84,0.00,,,0.00,meteohub,2013-07-27 09:37:00,
2013-07-27 04:42:00,53.1,48.4,29.91,NNW,340,6.0,9.0,84,0.00,,,0.00,meteohub,2013-07-27 09:42:00,
2013-07-27 04:47:00,53.1,48.4,29.91,NNW,337,6.0,11.0,84,0.00,,,0.00,meteohub,2013-07-27 09:47:00,
2013-07-27 04:52:00,53.1,48.4,29.91,North,5,2.0,11.0,84,0.00,,,0.00,meteohub,2013-07-27 09:52:00,
2013-07-27 04:57:00,53.1,48.7,29.91,NNW,329,3.0,11.0,85,0.00,,,0.00,meteohub,2013-07-27 09:57:00,
2013-07-27 05:02:00,53.1,48.7,29.91,NNW,332,2.0,10.0,85,0.00,,,0.00,meteohub,2013-07-27 10:02:00,
2013-07-27 05:07:00,53.1,48.7,29.91,NNW,332,3.0,8.0,85,0.00,,,0.00,meteohub,2013-07-27 10:07:00,
2013-07-27 05:12:00,53.1,48.9,29.92,NNW,332,1.0,6.0,86,0.00,,,0.00,meteohub,2013-07-27 10:12:00,
2013-07-27 05:17:00,52.9,48.6,29.92,NNW,333,3.0,6.0,85,0.00,,,0.00,meteohub,2013-07-27 10:17:00,
2013-07-27 05:22:00,52.9,48.6,29.92,NNW,339,4.0,7.0,85,0.00,,,0.00,meteohub,2013-07-27 10:22:00,
2013-07-27 05:27:00,52.9,48.2,29.91,WNW,285,3.0,7.0,84,0.00,,,0.00,meteohub,2013-07-27 10:27:00,
2013-07-27 05:32:00,52.7,48.0,29.92,NNW,347,4.0,7.0,84,0.00,,,0.00,meteohub,2013-07-27 10:32:00,
2013-07-27 05:37:00,52.7,48.0,29.92,NNW,346,2.0,9.0,84,0.00,,,0.00,meteohub,2013-07-27 10:37:00,
2013-07-27 05:42:00,52.7,48.0,29.92,NW,320,1.0,9.0,84,0.00,,,0.00,meteohub,2013-07-27 10:42:00,
2013-07-27 05:47:00,52.7,48.0,29.92,NW,321,1.0,9.0,84,0.00,,,0.00,meteohub,2013-07-27 10:47:00,
2013-07-27 05:52:00,52.5,47.8,29.92,West,262,4.0,7.0,84,0.00,,,0.00,meteohub,2013-07-27 10:52:00,
2013-07-27 05:58:00,52.5,47.8,29.92,West,263,1.0,6.0,84,0.00,,,0.00,meteohub,2013-07-27 10:58:00,
2013-07-27 06:03:00,52.3,47.3,29.92,West,263,0.0,6.0,83,0.00,,,0.00,meteohub,2013-07-27 11:03:00,
2013-07-27 06:08:00,52.3,47.7,29.92,West,263,2.0,6.0,84,0.00,,,0.00,meteohub,2013-07-27 11:08:00,
2013-07-27 06:13:00,52.2,47.8,29.92,WSW,244,1.0,4.0,85,0.00,,,0.00,meteohub,2013-07-27 11:13:00,
2013-07-27 06:18:00,52.0,47.8,29.92,WSW,245,0.0,6.0,86,0.00,,,0.00,meteohub,2013-07-27 11:18:00,
2013-07-27 06:23:00,51.8,47.7,29.92,WSW,248,4.0,6.0,86,0.00,,,0.00,meteohub,2013-07-27 11:23:00,
2013-07-27 06:29:00,51.4,47.7,29.92,WSW,255,1.0,5.0,87,0.00,,,0.00,meteohub,2013-07-27 11:29:00,
2013-07-27 06:34:00,51.4,47.7,29.92,West,259,0.0,7.0,87,0.00,,,0.00,meteohub,2013-07-27 11:34:00,
2013-07-27 06:39:00,51.3,47.5,29.93,West,259,2.0,7.0,87,0.00,,,0.00,meteohub,2013-07-27 11:39:00,
2013-07-27 06:45:00,51.3,47.5,29.92,West,264,3.0,5.0,87,0.00,,,0.00,meteohub,2013-07-27 11:45:00,
2013-07-27 06:50:00,51.1,47.3,29.92,West,265,1.0,7.0,87,0.00,,,0.00,meteohub,2013-07-27 11:50:00,
2013-07-27 06:55:00,51.3,47.5,29.92,West,265,1.0,7.0,87,0.00,,,0.00,meteohub,2013-07-27 11:55:00,
2013-07-27 07:00:00,51.3,47.5,29.92,West,265,0.0,6.0,87,0.00,,,0.00,meteohub,2013-07-27 12:00:00,
2013-07-27 07:06:00,51.3,47.5,29.92,West,265,1.0,6.0,87,0.00,,,0.00,meteohub,2013-07-27 12:06:00,
2013-07-27 07:11:00,51.3,47.5,29.92,West,265,5.0,6.0,87,0.00,,,0.00,meteohub,2013-07-27 12:11:00,
2013-07-27 07:16:00,51.3,47.5,29.92,West,266,0.0,6.0,87,0.00,,,0.00,meteohub,2013-07-27 12:16:00,
2013-07-27 07:21:00,51.3,47.5,29.92,West,266,2.0,6.0,87,0.00,,,0.00,meteohub,2013-07-27 12:21:00,
2013-07-27 07:26:00,51.3,47.3,29.93,WSW,238,0.0,6.0,86,0.00,,,0.00,meteohub,2013-07-27 12:26:00,
2013-07-27 07:31:00,51.3,47.3,29.92,WSW,238,3.0,6.0,86,0.00,,,0.00,meteohub,2013-07-27 12:31:00,
2013-07-27 07:37:00,51.3,47.3,29.93,West,271,0.0,6.0,86,0.00,,,0.00,meteohub,2013-07-27 12:37:00,
2013-07-27 07:42:00,51.3,47.5,29.93,West,271,1.0,5.0,87,0.00,,,0.00,meteohub,2013-07-27 12:42:00,
2013-07-27 07:47:00,51.3,47.5,29.93,West,271,0.0,5.0,87,0.00,,,0.00,meteohub,2013-07-27 12:47:00,
2013-07-27 07:52:00,51.1,47.1,29.93,WNW,296,0.0,6.0,86,0.00,,,0.00,meteohub,2013-07-27 12:52:00,
2013-07-27 07:58:00,50.9,46.9,29.93,NW,312,6.0,6.0,86,0.00,,,0.00,meteohub,2013-07-27 12:58:00,
2013-07-27 08:03:00,50.9,46.9,29.93,NW,309,0.0,7.0,86,0.00,,,0.00,meteohub,2013-07-27 13:03:00,
2013-07-27 08:08:00,50.9,46.6,29.93,NW,308,0.0,9.0,85,0.00,,,0.00,meteohub,2013-07-27 13:08:00,
2013-07-27 08:13:00,51.1,47.1,29.93,West,269,0.0,9.0,86,0.00,,,0.00,meteohub,2013-07-27 13:13:00,
2013-07-27 08:18:00,51.1,47.1,29.93,WSW,257,1.0,9.0,86,0.00,,,0.00,meteohub,2013-07-27 13:18:00,
2013-07-27 08:23:00,51.3,46.9,29.93,West,278,3.0,6.0,85,0.00,,,0.00,meteohub,2013-07-27 13:23:00,
2013-07-27 08:29:00,51.3,46.9,29.93,WNW,288,2.0,5.0,85,0.00,,,0.00,meteohub,2013-07-27 13:29:00,
2013-07-27 08:34:00,51.3,46.9,29.93,NW,308,1.0,5.0,85,0.00,,,0.00,meteohub,2013-07-27 13:34:00,
2013-07-27 08:39:00,51.3,46.6,29.93,NNW,327,2.0,5.0,84,0.00,,,0.00,meteohub,2013-07-27 13:39:00,
2013-07-27 08:44:00,51.3,46.6,29.93,NW,325,1.0,6.0,84,0.00,,,0.00,meteohub,2013-07-27 13:44:00,
2013-07-27 08:49:00,51.8,47.5,29.93,WSW,254,0.0,7.0,85,0.00,,,0.00,meteohub,2013-07-27 13:49:00,
2013-07-27 08:55:00,52.5,47.5,29.93,West,281,3.0,7.0,83,0.00,,,0.00,meteohub,2013-07-27 13:55:00,
2013-07-27 09:00:00,52.9,47.5,29.93,West,266,1.0,6.0,82,0.00,,,0.00,meteohub,2013-07-27 14:00:00,
2013-07-27 09:05:00,52.7,46.8,29.93,West,261,1.0,6.0,80,0.00,,,0.00,meteohub,2013-07-27 14:05:00,
2013-07-27 09:10:00,52.7,47.1,29.93,NNW,331,2.0,6.0,81,0.00,,,0.00,meteohub,2013-07-27 14:10:00,
2013-07-27 09:15:00,52.9,47.3,29.92,NNW,344,3.0,7.0,81,0.00,,,0.00,meteohub,2013-07-27 14:15:00,
2013-07-27 09:20:00,53.2,46.9,29.92,West,266,0.0,7.0,79,0.00,,,0.00,meteohub,2013-07-27 14:20:00,
2013-07-27 09:25:00,53.2,46.9,29.92,WSW,250,0.0,7.0,79,0.00,,,0.00,meteohub,2013-07-27 14:25:00,
2013-07-27 09:31:00,53.4,47.5,29.92,WSW,257,0.0,5.0,80,0.00,,,0.00,meteohub,2013-07-27 14:31:00,
2013-07-27 09:36:00,53.4,47.5,29.91,WSW,250,0.0,5.0,80,0.00,,,0.00,meteohub,2013-07-27 14:36:00,
2013-07-27 09:41:00,53.6,47.8,29.91,NW,309,3.0,5.0,81,0.00,,,0.00,meteohub,2013-07-27 14:41:00,
2013-07-27 09:47:00,53.2,46.9,29.92,West,271,2.0,9.0,79,0.00,,,0.00,meteohub,2013-07-27 14:47:00,
2013-07-27 09:52:00,53.1,47.3,29.91,WSW,242,1.0,9.0,81,0.00,,,0.00,meteohub,2013-07-27 14:52:00,
2013-07-27 09:57:00,52.7,47.1,29.91,SW,235,0.0,9.0,81,0.00,,,0.00,meteohub,2013-07-27 14:57:00,
2013-07-27 10:02:00,52.7,47.1,29.91,West,279,2.0,7.0,81,0.00,,,0.00,meteohub,2013-07-27 15:02:00,
2013-07-27 10:07:00,53.1,47.3,29.91,West,261,7.0,7.0,81,0.00,,,0.00,meteohub,2013-07-27 15:07:00,
2013-07-27 10:12:00,53.2,46.9,29.91,West,259,0.0,7.0,79,0.00,,,0.00,meteohub,2013-07-27 15:12:00,
2013-07-27 10:17:00,53.2,46.6,29.91,WSW,249,4.0,7.0,78,0.00,,,0.00,meteohub,2013-07-27 15:17:00,
2013-07-27 10:22:00,53.2,46.2,29.91,West,268,2.0,9.0,77,0.00,,,0.00,meteohub,2013-07-27 15:22:00,
2013-07-27 10:27:00,53.6,47.3,29.91,West,267,2.0,9.0,79,0.00,,,0.00,meteohub,2013-07-27 15:27:00,
2013-07-27 10:32:00,54.0,46.9,29.91,NW,309,4.0,10.0,77,0.00,,,0.00,meteohub,2013-07-27 15:32:00,
2013-07-27 10:37:00,53.8,46.4,29.91,NW,320,1.0,10.0,76,0.00,,,0.00,meteohub,2013-07-27 15:37:00,
2013-07-27 10:42:00,54.0,47.3,29.91,NW,319,0.0,10.0,78,0.00,,,0.00,meteohub,2013-07-27 15:42:00,
2013-07-27 10:47:00,54.0,47.3,29.91,NW,313,0.0,7.0,78,0.00,,,0.00,meteohub,2013-07-27 15:47:00,
2013-07-27 10:52:00,54.0,46.9,29.91,WSW,256,4.0,7.0,77,0.00,,,0.00,meteohub,2013-07-27 15:52:00,
2013-07-27 10:57:00,53.8,47.1,29.91,WSW,244,4.0,11.0,78,0.00,,,0.00,meteohub,2013-07-27 15:57:00,
2013-07-27 11:02:00,53.6,46.9,29.91,WSW,254,7.0,12.0,78,0.00,,,0.00,meteohub,2013-07-27 16:02:00,
2013-07-27 11:07:00,54.1,48.0,29.91,West,261,4.0,12.0,80,0.00,,,0.00,meteohub,2013-07-27 16:07:00,
2013-07-27 11:12:00,54.0,47.3,29.91,West,265,10.0,12.0,78,0.00,,,0.00,meteohub,2013-07-27 16:12:00,
2013-07-27 11:17:00,53.8,47.1,29.91,West,277,7.0,13.0,78,0.00,,,0.00,meteohub,2013-07-27 16:17:00,
2013-07-27 11:23:00,53.2,46.6,29.91,WSW,252,0.0,13.0,78,0.00,,,0.00,meteohub,2013-07-27 16:23:00,
2013-07-27 11:28:00,53.8,47.1,29.91,West,267,6.0,12.0,78,0.00,,,0.00,meteohub,2013-07-27 16:28:00,
2013-07-27 11:33:00,54.5,48.2,29.91,WNW,286,3.0,11.0,79,0.00,,,0.00,meteohub,2013-07-27 16:33:00,
2013-07-27 11:39:00,55.2,47.5,29.90,West,279,3.0,9.0,75,0.00,,,0.00,meteohub,2013-07-27 16:39:00,
2013-07-27 11:44:00,56.5,48.9,29.90,West,276,4.0,9.0,76,0.00,,,0.00,meteohub,2013-07-27 16:44:00,
2013-07-27 11:49:00,56.5,47.5,29.90,WSW,250,7.0,9.0,72,0.00,,,0.00,meteohub,2013-07-27 16:49:00,
2013-07-27 11:54:00,56.3,47.8,29.90,West,278,6.0,9.0,73,0.00,,,0.00,meteohub,2013-07-27 16:54:00,
2013-07-27 12:00:00,56.7,46.9,29.90,West,265,0.0,11.0,70,0.00,,,0.00,meteohub,2013-07-27 17:00:00,
2013-07-27 12:05:00,56.8,47.1,29.90,WSW,254,5.0,12.0,70,0.00,,,0.00,meteohub,2013-07-27 17:05:00,
2013-07-27 12:10:00,56.7,46.6,29.90,WNW,286,5.0,14.0,69,0.00,,,0.00,meteohub,2013-07-27 17:10:00,
2013-07-27 12:15:00,56.8,47.8,29.90,WSW,257,1.0,14.0,72,0.00,,,0.00,meteohub,2013-07-27 17:15:00,
2013-07-27 12:20:00,57.6,47.8,29.90,WSW,246,5.0,14.0,70,0.00,,,0.00,meteohub,2013-07-27 17:20:00,
2013-07-27 12:26:00,57.7,47.7,29.90,North,0,0.0,10.0,69,0.00,,,0.00,meteohub,2013-07-27 17:26:00,
2013-07-27 12:31:00,57.7,46.9,29.90,West,271,3.0,9.0,67,0.00,,,0.00,meteohub,2013-07-27 17:31:00,
2013-07-27 12:37:00,56.8,46.4,29.90,West,268,10.0,10.0,68,0.00,,,0.00,meteohub,2013-07-27 17:37:00,
2013-07-27 12:42:00,56.7,46.9,29.90,WSW,252,4.0,11.0,70,0.00,,,0.00,meteohub,2013-07-27 17:42:00,
2013-07-27 12:47:00,57.0,47.7,29.89,WSW,240,3.0,11.0,71,0.00,,,0.00,meteohub,2013-07-27 17:47:00,
2013-07-27 12:52:00,57.4,46.9,29.89,West,267,0.0,11.0,68,0.00,,,0.00,meteohub,2013-07-27 17:52:00,
2013-07-27 12:57:00,57.2,47.1,29.90,West,268,3.0,12.0,69,0.00,,,0.00,meteohub,2013-07-27 17:57:00,
2013-07-27 13:02:00,57.2,47.5,29.89,WSW,242,7.0,12.0,70,0.00,,,0.00,meteohub,2013-07-27 18:02:00,
2013-07-27 13:08:00,57.4,47.3,29.89,WNW,288,2.0,12.0,69,0.00,,,0.00,meteohub,2013-07-27 18:08:00,
2013-07-27 13:13:00,57.2,47.1,29.89,WSW,244,6.0,12.0,69,0.00,,,0.00,meteohub,2013-07-27 18:13:00,
2013-07-27 13:18:00,57.9,48.9,29.89,West,260,3.0,12.0,72,0.00,,,0.00,meteohub,2013-07-27 18:18:00,
2013-07-27 13:23:00,58.5,48.0,29.89,WSW,240,4.0,12.0,68,0.00,,,0.00,meteohub,2013-07-27 18:23:00,
2013-07-27 13:29:00,57.7,47.3,29.89,West,271,3.0,12.0,68,0.00,,,0.00,meteohub,2013-07-27 18:29:00,
2013-07-27 13:34:00,58.1,48.0,29.89,West,266,1.0,13.0,69,0.00,,,0.00,meteohub,2013-07-27 18:34:00,
2013-07-27 13:39:00,58.3,47.8,29.89,WSW,245,4.0,13.0,68,0.00,,,0.00,meteohub,2013-07-27 18:39:00,
2013-07-27 13:44:00,57.9,46.9,29.89,WSW,250,3.0,13.0,67,0.00,,,0.00,meteohub,2013-07-27 18:44:00,
2013-07-27 13:50:00,58.1,48.4,29.89,WSW,244,3.0,11.0,70,0.00,,,0.00,meteohub,2013-07-27 18:50:00,
2013-07-27 13:55:00,58.6,48.6,29.89,West,260,4.0,11.0,69,0.00,,,0.00,meteohub,2013-07-27 18:55:00,
2013-07-27 14:00:00,58.6,47.7,29.89,West,277,5.0,9.0,67,0.00,,,0.00,meteohub,2013-07-27 19:00:00,
2013-07-27 14:05:00,58.5,48.4,29.89,West,263,4.0,10.0,69,0.00,,,0.00,meteohub,2013-07-27 19:05:00,
2013-07-27 14:10:00,58.1,48.0,29.89,West,259,4.0,11.0,69,0.00,,,0.00,meteohub,2013-07-27 19:10:00,
2013-07-27 14:16:00,58.1,48.0,29.89,West,265,3.0,11.0,69,0.00,,,0.00,meteohub,2013-07-27 19:16:00,
2013-07-27 14:21:00,57.9,47.8,29.89,West,261,1.0,11.0,69,0.00,,,0.00,meteohub,2013-07-27 19:21:00,
2013-07-27 14:26:00,57.7,47.7,29.89,West,263,2.0,11.0,69,0.00,,,0.00,meteohub,2013-07-27 19:26:00,
2013-07-27 14:31:00,57.7,48.0,29.89,West,279,4.0,11.0,70,0.00,,,0.00,meteohub,2013-07-27 19:31:00,
2013-07-27 14:37:00,57.7,48.0,29.89,NW,304,0.0,11.0,70,0.00,,,0.00,meteohub,2013-07-27 19:37:00,
2013-07-27 14:42:00,58.1,48.4,29.89,WSW,246,3.0,7.0,70,0.00,,,0.00,meteohub,2013-07-27 19:42:00,
2013-07-27 14:47:00,58.6,48.9,29.88,WSW,249,2.0,8.0,70,0.00,,,0.00,meteohub,2013-07-27 19:47:00,
2013-07-27 14:52:00,59.4,49.1,29.88,SW,225,5.0,11.0,69,0.00,,,0.00,meteohub,2013-07-27 19:52:00,
2013-07-27 14:57:00,58.8,48.2,29.88,WSW,242,2.0,15.0,68,0.00,,,0.00,meteohub,2013-07-27 19:57:00,
2013-07-27 15:02:00,58.5,48.7,29.88,West,273,3.0,15.0,70,0.00,,,0.00,meteohub,2013-07-27 20:02:00,
2013-07-27 15:08:00,58.3,48.9,29.88,West,271,6.0,15.0,71,0.00,,,0.00,meteohub,2013-07-27 20:08:00,
2013-07-27 15:13:00,58.3,48.9,29.88,West,273,3.0,13.0,71,0.00,,,0.00,meteohub,2013-07-27 20:13:00,
2013-07-27 15:18:00,58.8,49.8,29.88,WSW,252,5.0,10.0,72,0.00,,,0.00,meteohub,2013-07-27 20:18:00,
2013-07-27 15:23:00,59.2,49.1,29.88,WSW,249,5.0,12.0,69,0.00,,,0.00,meteohub,2013-07-27 20:23:00,
2013-07-27 15:28:00,58.6,48.9,29.88,WSW,253,9.0,14.0,70,0.00,,,0.00,meteohub,2013-07-27 20:28:00,
2013-07-27 15:34:00,58.1,48.7,29.88,WSW,253,9.0,15.0,71,0.00,,,0.00,meteohub,2013-07-27 20:34:00,
2013-07-27 15:39:00,57.6,47.8,29.88,WSW,242,5.0,15.0,70,0.00,,,0.00,meteohub,2013-07-27 20:39:00,
2013-07-27 15:44:00,57.6,48.6,29.88,WSW,242,3.0,15.0,72,0.00,,,0.00,meteohub,2013-07-27 20:44:00,
2013-07-27 15:49:00,57.6,48.6,29.88,WSW,243,2.0,12.0,72,0.00,,,0.00,meteohub,2013-07-27 20:49:00,
2013-07-27 15:55:00,59.0,50.7,29.87,WSW,248,4.0,13.0,74,0.00,,,0.00,meteohub,2013-07-27 20:55:00,
2013-07-27 16:00:00,59.5,49.8,29.87,West,275,5.0,13.0,70,0.00,,,0.00,meteohub,2013-07-27 21:00:00,
2013-07-27 16:05:00,59.4,49.1,29.87,West,261,0.0,9.0,69,0.00,,,0.00,meteohub,2013-07-27 21:05:00,
2013-07-27 16:10:00,59.2,49.5,29.87,West,268,0.0,9.0,70,0.00,,,0.00,meteohub,2013-07-27 21:10:00,
2013-07-27 16:16:00,58.6,48.9,29.87,WSW,241,4.0,8.0,70,0.00,,,0.00,meteohub,2013-07-27 21:16:00,
2013-07-27 16:21:00,58.6,48.9,29.87,WSW,243,5.0,12.0,70,0.00,,,0.00,meteohub,2013-07-27 21:21:00,
2013-07-27 16:26:00,59.2,50.2,29.87,WSW,248,5.0,13.0,72,0.00,,,0.00,meteohub,2013-07-27 21:26:00,
2013-07-27 16:32:00,59.5,50.2,29.87,West,261,7.0,13.0,71,0.00,,,0.00,meteohub,2013-07-27 21:32:00,
2013-07-27 16:37:00,59.5,49.3,29.87,West,260,0.0,10.0,69,0.00,,,0.00,meteohub,2013-07-27 21:37:00,
2013-07-27 16:42:00,59.5,50.2,29.87,West,262,3.0,9.0,71,0.00,,,0.00,meteohub,2013-07-27 21:42:00,
2013-07-27 16:47:00,59.4,50.0,29.86,WNW,302,0.0,9.0,71,0.00,,,0.00,meteohub,2013-07-27 21:47:00,
2013-07-27 16:52:00,59.0,49.3,29.86,West,264,1.0,11.0,70,0.00,,,0.00,meteohub,2013-07-27 21:52:00,
2013-07-27 16:57:00,59.2,49.8,29.86,NW,312,1.0,11.0,71,0.00,,,0.00,meteohub,2013-07-27 21:57:00,
2013-07-27 17:02:00,59.7,50.7,29.86,West,267,5.0,11.0,72,0.00,,,0.00,meteohub,2013-07-27 22:02:00,
2013-07-27 17:07:00,60.1,50.2,29.86,WNW,290,0.0,9.0,70,0.00,,,0.00,meteohub,2013-07-27 22:07:00,
2013-07-27 17:13:00,60.1,49.8,29.86,West,260,3.0,10.0,69,0.00,,,0.00,meteohub,2013-07-27 22:13:00,
2013-07-27 17:18:00,59.7,50.0,29.86,WSW,249,0.0,10.0,70,0.00,,,0.00,meteohub,2013-07-27 22:18:00,
2013-07-27 17:23:00,59.5,49.8,29.86,West,275,6.0,10.0,70,0.00,,,0.00,meteohub,2013-07-27 22:23:00,
2013-07-27 17:28:00,59.7,50.4,29.86,WSW,252,6.0,11.0,71,0.00,,,0.00,meteohub,2013-07-27 22:28:00,
2013-07-27 17:33:00,59.7,50.4,29.86,West,259,1.0,11.0,71,0.00,,,0.00,meteohub,2013-07-27 22:33:00,
2013-07-27 17:38:00,59.5,49.8,29.86,SW,235,5.0,11.0,70,0.00,,,0.00,meteohub,2013-07-27 22:38:00,
2013-07-27 17:43:00,59.2,49.5,29.86,WSW,246,2.0,10.0,70,0.00,,,0.00,meteohub,2013-07-27 22:43:00,
2013-07-27 17:49:00,58.8,49.5,29.86,WSW,250,5.0,11.0,71,0.00,,,0.00,meteohub,2013-07-27 22:49:00,
2013-07-27 17:54:00,58.6,49.6,29.86,WSW,247,2.0,11.0,72,0.00,,,0.00,meteohub,2013-07-27 22:54:00,
2013-07-27 17:59:00,58.5,49.5,29.86,WSW,254,5.0,13.0,72,0.00,,,0.00,meteohub,2013-07-27 22:59:00,
2013-07-27 18:04:00,58.3,49.3,29.86,West,272,7.0,13.0,72,0.00,,,0.00,meteohub,2013-07-27 23:04:00,
2013-07-27 18:09:00,58.1,49.1,29.86,West,268,7.0,10.0,72,0.00,,,0.00,meteohub,2013-07-27 23:09:00,
2013-07-27 18:15:00,58.1,49.1,29.86,WSW,248,4.0,11.0,72,0.00,,,0.00,meteohub,2013-07-27 23:15:00,
2013-07-27 18:20:00,57.9,49.3,29.86,WSW,256,4.0,12.0,73,0.00,,,0.00,meteohub,2013-07-27 23:20:00,
2013-07-27 18:25:00,57.7,49.1,29.86,WSW,244,7.0,12.0,73,0.00,,,0.00,meteohub,2013-07-27 23:25:00,
2013-07-27 18:31:00,57.6,49.3,29.86,West,264,3.0,12.0,74,0.00,,,0.00,meteohub,2013-07-27 23:31:00,
2013-07-27 18:37:00,57.4,49.5,29.86,WSW,244,2.0,13.0,75,0.00,,,0.00,meteohub,2013-07-27 23:37:00,
2013-07-27 18:42:00,57.0,49.1,29.86,WSW,241,5.0,13.0,75,0.00,,,0.00,meteohub,2013-07-27 23:42:00,
2013-07-27 18:47:00,56.8,49.3,29.86,WSW,240,4.0,9.0,76,0.00,,,0.00,meteohub,2013-07-27 23:47:00,
2013-07-27 18:52:00,56.8,49.3,29.86,WSW,253,0.0,10.0,76,0.00,,,0.00,meteohub,2013-07-27 23:52:00,
2013-07-27 18:57:00,56.8,49.3,29.86,WSW,240,6.0,10.0,76,0.00,,,0.00,meteohub,2013-07-27 23:57:00,
2013-07-27 19:02:00,56.8,49.6,29.86,WSW,240,2.0,8.0,77,0.00,,,0.00,meteohub,2013-07-28 00:02:00,
2013-07-27 19:07:00,56.8,49.3,29.86,WSW,237,2.0,7.0,76,0.00,,,0.00,meteohub,2013-07-28 00:07:00,
2013-07-27 19:12:00,56.7,49.5,29.86,WSW,252,2.0,10.0,77,0.00,,,0.00,meteohub,2013-07-28 00:12:00,
2013-07-27 19:17:00,56.5,49.6,29.86,WSW,240,2.0,10.0,78,0.00,,,0.00,meteohub,2013-07-28 00:17:00,
2013-07-27 19:23:00,56.5,49.6,29.86,WSW,246,1.0,8.0,78,0.00,,,0.00,meteohub,2013-07-28 00:23:00,
2013-07-27 19:28:00,56.5,50.0,29.86,WSW,246,1.0,8.0,79,0.00,,,0.00,meteohub,2013-07-28 00:28:00,
2013-07-27 19:33:00,56.5,50.4,29.86,WSW,246,1.0,6.0,80,0.00,,,0.00,meteohub,2013-07-28 00:33:00,
2013-07-27 19:38:00,56.3,49.8,29.86,WSW,245,3.0,5.0,79,0.00,,,0.00,meteohub,2013-07-28 00:38:00,
2013-07-27 19:44:00,56.1,50.0,29.86,WSW,244,3.0,5.0,80,0.00,,,0.00,meteohub,2013-07-28 00:44:00,
2013-07-27 19:49:00,56.1,50.0,29.86,WSW,243,3.0,5.0,80,0.00,,,0.00,meteohub,2013-07-28 00:49:00,
2013-07-27 19:54:00,55.9,50.2,29.86,WSW,244,2.0,5.0,81,0.00,,,0.00,meteohub,2013-07-28 00:54:00,
2013-07-27 19:59:00,55.8,50.7,29.86,WSW,242,4.0,6.0,83,0.00,,,0.00,meteohub,2013-07-28 00:59:00,
2013-07-27 20:04:00,54.9,50.4,29.86,SW,219,4.0,8.0,85,0.00,,,0.00,meteohub,2013-07-28 01:04:00,
2013-07-27 20:09:00,54.3,50.9,29.86,SW,219,2.0,9.0,88,0.01,,,0.01,meteohub,2013-07-28 01:09:00,
2013-07-27 20:14:00,54.0,50.7,29.86,SW,221,3.0,9.0,89,0.01,,,0.01,meteohub,2013-07-28 01:14:00,
2013-07-27 20:20:00,53.8,50.5,29.86,SW,221,3.0,9.0,89,0.01,,,0.01,meteohub,2013-07-28 01:20:00,
2013-07-27 20:25:00,53.8,50.9,29.86,SW,221,1.0,6.0,90,0.01,,,0.01,meteohub,2013-07-28 01:25:00,
2013-07-27 20:30:00,53.6,51.1,29.86,SW,221,0.0,6.0,91,0.01,,,0.01,meteohub,2013-07-28 01:30:00,
2013-07-27 20:35:00,53.4,50.9,29.86,SW,223,2.0,6.0,91,0.01,,,0.01,meteohub,2013-07-28 01:35:00,
2013-07-27 20:40:00,53.4,50.9,29.86,SW,223,2.0,6.0,91,0.01,,,0.01,meteohub,2013-07-28 01:40:00,
2013-07-27 20:45:00,53.2,50.7,29.86,SW,223,3.0,6.0,91,0.01,,,0.01,meteohub,2013-07-28 01:45:00,
2013-07-27 20:50:00,53.2,50.7,29.86,SW,223,4.0,5.0,91,0.01,,,0.01,meteohub,2013-07-28 01:50:00,
2013-07-27 20:56:00,53.2,50.9,29.86,SW,223,0.0,5.0,92,0.01,,,0.01,meteohub,2013-07-28 01:56:00,
2013-07-27 21:01:00,53.1,50.5,29.86,SW,225,0.0,5.0,91,0.01,,,0.01,meteohub,2013-07-28 02:01:00,
2013-07-27 21:06:00,52.9,50.4,29.86,SW,225,2.0,5.0,91,0.00,,,0.01,meteohub,2013-07-28 02:06:00,
2013-07-27 21:11:00,53.1,50.5,29.86,SW,225,4.0,5.0,91,0.00,,,0.01,meteohub,2013-07-28 02:11:00,
2013-07-27 21:17:00,52.9,50.4,29.86,SW,225,2.0,5.0,91,0.00,,,0.01,meteohub,2013-07-28 02:17:00,
2013-07-27 21:22:00,52.9,50.4,29.86,SW,225,3.0,5.0,91,0.00,,,0.01,meteohub,2013-07-28 02:22:00,
2013-07-27 21:27:00,52.9,50.4,29.86,SW,225,0.0,5.0,91,0.00,,,0.01,meteohub,2013-07-28 02:27:00,
2013-07-27 21:32:00,52.9,50.5,29.87,SW,225,1.0,5.0,92,0.00,,,0.01,meteohub,2013-07-28 02:32:00,
2013-07-27 21:37:00,52.9,50.5,29.86,SW,225,1.0,6.0,92,0.00,,,0.01,meteohub,2013-07-28 02:37:00,
2013-07-27 21:42:00,53.1,50.7,29.86,SW,225,1.0,6.0,92,0.00,,,0.01,meteohub,2013-07-28 02:42:00,
2013-07-27 21:47:00,52.9,50.5,29.86,SW,225,1.0,6.0,92,0.00,,,0.01,meteohub,2013-07-28 02:47:00,
2013-07-27 21:52:00,52.9,50.5,29.86,SW,225,1.0,4.0,92,0.00,,,0.01,meteohub,2013-07-28 02:52:00,
2013-07-27 21:57:00,52.9,50.5,29.86,SW,225,1.0,4.0,92,0.00,,,0.01,meteohub,2013-07-28 02:57:00,
2013-07-27 22:03:00,52.9,50.5,29.86,SW,225,1.0,5.0,92,0.00,,,0.01,meteohub,2013-07-28 03:03:00,
2013-07-27 22:08:00,52.9,50.5,29.86,SW,225,3.0,5.0,92,0.00,,,0.01,meteohub,2013-07-28 03:08:00,
2013-07-27 22:13:00,52.9,50.5,29.86,SW,225,2.0,5.0,92,0.00,,,0.01,meteohub,2013-07-28 03:13:00,
2013-07-27 22:18:00,52.9,50.5,29.86,SW,225,0.0,4.0,92,0.00,,,0.01,meteohub,2013-07-28 03:18:00,
2013-07-27 22:23:00,52.9,50.5,29.86,SW,225,2.0,4.0,92,0.00,,,0.01,meteohub,2013-07-28 03:23:00,
2013-07-27 22:28:00,52.7,50.4,29.86,SW,225,1.0,3.0,92,0.00,,,0.01,meteohub,2013-07-28 03:28:00,
2013-07-27 22:33:00,52.7,50.7,29.86,SW,225,0.0,5.0,93,0.00,,,0.01,meteohub,2013-07-28 03:33:00,
2013-07-27 22:39:00,52.7,50.7,29.86,SW,226,2.0,5.0,93,0.00,,,0.01,meteohub,2013-07-28 03:39:00,
2013-07-27 22:44:00,52.7,50.7,29.86,SW,226,4.0,5.0,93,0.00,,,0.01,meteohub,2013-07-28 03:44:00,
2013-07-27 22:49:00,52.7,50.7,29.86,SW,226,2.0,8.0,93,0.00,,,0.01,meteohub,2013-07-28 03:49:00,
2013-07-27 22:55:00,52.7,50.7,29.86,SW,227,3.0,8.0,93,0.00,,,0.01,meteohub,2013-07-28 03:55:00,
2013-07-27 23:00:00,52.5,50.5,29.86,SW,227,4.0,8.0,93,0.00,,,0.01,meteohub,2013-07-28 04:00:00,
2013-07-27 23:01:00,52.5,50.5,29.86,SW,227,0.0,7.0,93,0.00,,,0.01,meteohub,2013-07-28 04:01:00,
2013-07-27 23:02:00,52.5,50.5,29.86,SW,227,2.0,7.0,93,0.00,,,0.01,meteohub,2013-07-28 04:02:00,
2013-07-27 23:04:00,52.7,50.7,29.86,SW,227,3.0,7.0,93,0.00,,,0.01,meteohub,2013-07-28 04:04:00,
2013-07-27 23:08:00,52.7,50.7,29.86,SW,227,1.0,7.0,93,0.00,,,0.01,meteohub,2013-07-28 04:08:00,
2013-07-27 23:13:00,52.7,50.7,29.86,SW,227,0.0,6.0,93,0.00,,,0.01,meteohub,2013-07-28 04:13:00,
2013-07-27 23:18:00,52.5,50.5,29.86,SW,228,5.0,5.0,93,0.00,,,0.01,meteohub,2013-07-28 04:18:00,
2013-07-27 23:24:00,52.5,50.5,29.86,SW,231,2.0,6.0,93,0.00,,,0.01,meteohub,2013-07-28 04:24:00,
2013-07-27 23:29:00,52.5,50.5,29.85,SW,232,0.0,8.0,93,0.00,,,0.01,meteohub,2013-07-28 04:29:00,
2013-07-27 23:34:00,52.5,50.5,29.85,SW,232,2.0,8.0,93,0.00,,,0.01,meteohub,2013-07-28 04:34:00,
2013-07-27 23:39:00,52.5,50.5,29.85,SW,232,3.0,8.0,93,0.00,,,0.01,meteohub,2013-07-28 04:39:00,
2013-07-27 23:45:00,52.5,50.5,29.85,SW,232,0.0,6.0,93,0.00,,,0.01,meteohub,2013-07-28 04:45:00,
2013-07-27 23:50:00,52.5,50.5,29.85,SW,232,0.0,6.0,93,0.00,,,0.01,meteohub,2013-07-28 04:50:00,
2013-07-27 23:55:00,52.3,50.4,29.85,SW,232,0.0,5.0,93,0.00,,,0.01,meteohub,2013-07-28 04:55:00,